sensor_id;sensor_type;location;lat;lon;timestamp;P1;durP1;ratioP1;P2;durP2;ratioP2
5682;SDS011;2864;49.220;8.654;2023-03-01T00:00:37;15.73;;;10.77;;
5682;SDS011;2864;49.220;8.654;2023-03-01T00:03:03;16.60;;;10.60;;
5682;SDS011;2864;49.220;8.654;2023-03-01T00:05:29;21.60;;;10.07;;
5682;SDS011;2864;49.220;8.654;2023-03-01T00:07:55;15.80;;;10.27;;
5682;SDS011;2864;49.220;8.654;2023-03-01T00:10:21;16.60;;;9.97;;
5682;SDS011;2864;49.220;8.654;2023-03-01T00:12:47;14.33;;;9.13;;
5682;SDS011;2864;49.220;8.654;2023-03-01T00:15:13;14.37;;;9.50;;
5682;SDS011;2864;49.220;8.654;2023-03-01T00:17:39;13.93;;;9.20;;
5682;SDS011;2864;49.220;8.654;2023-03-01T00:20:05;15.87;;;10.27;;
5682;SDS011;2864;49.220;8.654;2023-03-01T00:22:35;14.83;;;9.80;;
5682;SDS011;2864;49.220;8.654;2023-03-01T00:25:01;15.10;;;9.63;;
5682;SDS011;2864;49.220;8.654;2023-03-01T00:27:27;15.73;;;9.77;;
5682;SDS011;2864;49.220;8.654;2023-03-01T00:29:53;12.97;;;9.57;;
5682;SDS011;2864;49.220;8.654;2023-03-01T00:32:19;15.70;;;9.70;;
5682;SDS011;2864;49.220;8.654;2023-03-01T00:34:45;15.23;;;9.80;;
5682;SDS011;2864;49.220;8.654;2023-03-01T00:37:19;12.13;;;8.67;;
5682;SDS011;2864;49.220;8.654;2023-03-01T00:39:45;12.97;;;9.20;;
5682;SDS011;2864;49.220;8.654;2023-03-01T00:42:11;16.60;;;10.07;;
5682;SDS011;2864;49.220;8.654;2023-03-01T00:44:37;17.97;;;9.90;;
5682;SDS011;2864;49.220;8.654;2023-03-01T00:47:03;19.23;;;10.20;;
5682;SDS011;2864;49.220;8.654;2023-03-01T00:49:29;15.20;;;9.63;;
5682;SDS011;2864;49.220;8.654;2023-03-01T00:51:55;16.63;;;10.27;;
5682;SDS011;2864;49.220;8.654;2023-03-01T00:54:21;18.63;;;10.57;;
5682;SDS011;2864;49.220;8.654;2023-03-01T00:56:47;16.60;;;9.47;;
5682;SDS011;2864;49.220;8.654;2023-03-01T00:59:13;16.40;;;10.37;;
5682;SDS011;2864;49.220;8.654;2023-03-01T01:01:39;18.00;;;10.53;;
5682;SDS011;2864;49.220;8.654;2023-03-01T01:04:06;16.50;;;10.43;;
5682;SDS011;2864;49.220;8.654;2023-03-01T01:06:35;17.37;;;10.47;;
5682;SDS011;2864;49.220;8.654;2023-03-01T01:09:02;15.17;;;10.43;;
5682;SDS011;2864;49.220;8.654;2023-03-01T01:11:29;15.77;;;10.13;;
5682;SDS011;2864;49.220;8.654;2023-03-01T01:13:55;16.97;;;10.80;;
5682;SDS011;2864;49.220;8.654;2023-03-01T01:16:21;18.10;;;10.70;;
5682;SDS011;2864;49.220;8.654;2023-03-01T01:18:48;20.67;;;10.53;;
5682;SDS011;2864;49.220;8.654;2023-03-01T01:21:15;18.43;;;11.03;;
5682;SDS011;2864;49.220;8.654;2023-03-01T01:23:46;15.50;;;10.40;;
5682;SDS011;2864;49.220;8.654;2023-03-01T01:26:16;15.47;;;11.03;;
5682;SDS011;2864;49.220;8.654;2023-03-01T01:28:44;15.53;;;10.60;;
5682;SDS011;2864;49.220;8.654;2023-03-01T01:31:10;17.00;;;10.57;;
5682;SDS011;2864;49.220;8.654;2023-03-01T01:33:37;19.10;;;11.17;;
5682;SDS011;2864;49.220;8.654;2023-03-01T01:36:04;17.63;;;11.20;;
5682;SDS011;2864;49.220;8.654;2023-03-01T01:38:30;17.63;;;11.20;;
5682;SDS011;2864;49.220;8.654;2023-03-01T01:40:56;18.13;;;10.13;;
5682;SDS011;2864;49.220;8.654;2023-03-01T01:45:48;15.90;;;10.77;;
5682;SDS011;2864;49.220;8.654;2023-03-01T01:48:19;16.87;;;11.03;;
5682;SDS011;2864;49.220;8.654;2023-03-01T01:50:46;18.87;;;10.67;;
5682;SDS011;2864;49.220;8.654;2023-03-01T01:53:23;19.23;;;11.07;;
5682;SDS011;2864;49.220;8.654;2023-03-01T01:55:54;16.87;;;10.20;;
5682;SDS011;2864;49.220;8.654;2023-03-01T01:58:22;16.97;;;10.63;;
5682;SDS011;2864;49.220;8.654;2023-03-01T02:00:50;16.63;;;10.93;;
5682;SDS011;2864;49.220;8.654;2023-03-01T02:03:20;18.53;;;10.70;;
5682;SDS011;2864;49.220;8.654;2023-03-01T02:08:18;18.20;;;11.20;;
5682;SDS011;2864;49.220;8.654;2023-03-01T02:10:46;19.27;;;11.17;;
5682;SDS011;2864;49.220;8.654;2023-03-01T02:13:13;17.57;;;11.47;;
5682;SDS011;2864;49.220;8.654;2023-03-01T02:15:39;14.83;;;10.60;;
5682;SDS011;2864;49.220;8.654;2023-03-01T02:18:06;16.60;;;10.70;;
5682;SDS011;2864;49.220;8.654;2023-03-01T02:22:59;17.23;;;10.60;;
5682;SDS011;2864;49.220;8.654;2023-03-01T02:30:42;20.17;;;12.30;;
5682;SDS011;2864;49.220;8.654;2023-03-01T02:33:29;18.20;;;11.43;;
5682;SDS011;2864;49.220;8.654;2023-03-01T02:35:57;15.97;;;11.13;;
5682;SDS011;2864;49.220;8.654;2023-03-01T02:38:25;20.70;;;11.70;;
5682;SDS011;2864;49.220;8.654;2023-03-01T02:40:51;20.73;;;12.00;;
5682;SDS011;2864;49.220;8.654;2023-03-01T02:43:18;21.90;;;12.23;;
5682;SDS011;2864;49.220;8.654;2023-03-01T02:45:49;19.30;;;12.10;;
5682;SDS011;2864;49.220;8.654;2023-03-01T02:48:15;24.10;;;12.90;;
5682;SDS011;2864;49.220;8.654;2023-03-01T02:50:49;21.03;;;11.80;;
5682;SDS011;2864;49.220;8.654;2023-03-01T02:56:11;17.60;;;11.67;;
5682;SDS011;2864;49.220;8.654;2023-03-01T02:58:38;21.67;;;12.40;;
5682;SDS011;2864;49.220;8.654;2023-03-01T03:01:12;19.33;;;11.83;;
5682;SDS011;2864;49.220;8.654;2023-03-01T03:03:40;18.70;;;11.37;;
5682;SDS011;2864;49.220;8.654;2023-03-01T03:06:07;18.93;;;12.80;;
5682;SDS011;2864;49.220;8.654;2023-03-01T03:08:33;21.33;;;12.83;;
5682;SDS011;2864;49.220;8.654;2023-03-01T03:10:59;20.37;;;12.53;;
5682;SDS011;2864;49.220;8.654;2023-03-01T03:13:25;21.33;;;12.77;;
5682;SDS011;2864;49.220;8.654;2023-03-01T03:15:53;19.87;;;11.83;;
5682;SDS011;2864;49.220;8.654;2023-03-01T03:18:19;23.60;;;12.83;;
5682;SDS011;2864;49.220;8.654;2023-03-01T03:20:45;23.60;;;12.70;;
5682;SDS011;2864;49.220;8.654;2023-03-01T03:23:11;21.00;;;12.83;;
5682;SDS011;2864;49.220;8.654;2023-03-01T03:25:38;21.30;;;12.17;;
5682;SDS011;2864;49.220;8.654;2023-03-01T03:28:04;21.47;;;12.90;;
5682;SDS011;2864;49.220;8.654;2023-03-01T03:30:34;18.97;;;11.97;;
5682;SDS011;2864;49.220;8.654;2023-03-01T03:33:00;19.97;;;12.17;;
5682;SDS011;2864;49.220;8.654;2023-03-01T03:35:28;24.57;;;13.03;;
5682;SDS011;2864;49.220;8.654;2023-03-01T03:37:55;20.00;;;12.60;;
5682;SDS011;2864;49.220;8.654;2023-03-01T03:40:28;21.93;;;12.40;;
5682;SDS011;2864;49.220;8.654;2023-03-01T03:42:54;20.33;;;12.23;;
5682;SDS011;2864;49.220;8.654;2023-03-01T03:45:20;22.37;;;13.40;;
5682;SDS011;2864;49.220;8.654;2023-03-01T03:47:46;19.00;;;11.70;;
5682;SDS011;2864;49.220;8.654;2023-03-01T03:50:13;20.30;;;12.30;;
5682;SDS011;2864;49.220;8.654;2023-03-01T03:52:40;23.57;;;13.10;;
5682;SDS011;2864;49.220;8.654;2023-03-01T03:55:06;26.73;;;13.33;;
5682;SDS011;2864;49.220;8.654;2023-03-01T03:57:39;20.57;;;12.43;;
5682;SDS011;2864;49.220;8.654;2023-03-01T04:00:05;18.20;;;12.17;;
5682;SDS011;2864;49.220;8.654;2023-03-01T04:02:43;22.63;;;12.97;;
5682;SDS011;2864;49.220;8.654;2023-03-01T04:05:10;19.87;;;11.87;;
5682;SDS011;2864;49.220;8.654;2023-03-01T04:07:39;20.47;;;13.47;;
5682;SDS011;2864;49.220;8.654;2023-03-01T04:10:06;21.00;;;13.13;;
5682;SDS011;2864;49.220;8.654;2023-03-01T04:12:34;19.40;;;12.10;;
5682;SDS011;2864;49.220;8.654;2023-03-01T04:15:00;20.60;;;12.50;;
5682;SDS011;2864;49.220;8.654;2023-03-01T04:17:26;21.50;;;12.73;;
5682;SDS011;2864;49.220;8.654;2023-03-01T04:19:52;19.90;;;11.80;;
5682;SDS011;2864;49.220;8.654;2023-03-01T04:22:18;19.80;;;12.53;;
5682;SDS011;2864;49.220;8.654;2023-03-01T04:24:44;23.50;;;13.07;;
5682;SDS011;2864;49.220;8.654;2023-03-01T04:27:10;23.43;;;12.50;;
5682;SDS011;2864;49.220;8.654;2023-03-01T04:29:36;21.57;;;13.50;;
5682;SDS011;2864;49.220;8.654;2023-03-01T04:32:03;19.20;;;12.83;;
5682;SDS011;2864;49.220;8.654;2023-03-01T04:34:29;19.80;;;12.33;;
5682;SDS011;2864;49.220;8.654;2023-03-01T04:36:55;21.60;;;13.67;;
5682;SDS011;2864;49.220;8.654;2023-03-01T04:39:22;19.90;;;13.17;;
5682;SDS011;2864;49.220;8.654;2023-03-01T04:41:47;20.33;;;12.77;;
5682;SDS011;2864;49.220;8.654;2023-03-01T04:44:13;21.10;;;13.00;;
5682;SDS011;2864;49.220;8.654;2023-03-01T04:46:39;24.30;;;13.33;;
5682;SDS011;2864;49.220;8.654;2023-03-01T04:49:05;19.93;;;12.97;;
5682;SDS011;2864;49.220;8.654;2023-03-01T04:51:31;21.97;;;12.77;;
5682;SDS011;2864;49.220;8.654;2023-03-01T04:53:58;20.33;;;12.37;;
5682;SDS011;2864;49.220;8.654;2023-03-01T04:56:25;20.10;;;12.20;;
5682;SDS011;2864;49.220;8.654;2023-03-01T04:58:53;21.93;;;13.53;;
5682;SDS011;2864;49.220;8.654;2023-03-01T05:01:19;23.20;;;13.23;;
5682;SDS011;2864;49.220;8.654;2023-03-01T05:03:46;22.37;;;12.93;;
5682;SDS011;2864;49.220;8.654;2023-03-01T05:06:12;22.27;;;12.43;;
5682;SDS011;2864;49.220;8.654;2023-03-01T05:08:39;22.97;;;13.87;;
5682;SDS011;2864;49.220;8.654;2023-03-01T05:11:05;22.33;;;13.80;;
5682;SDS011;2864;49.220;8.654;2023-03-01T05:13:33;22.50;;;12.87;;
5682;SDS011;2864;49.220;8.654;2023-03-01T05:16:00;20.63;;;13.37;;
5682;SDS011;2864;49.220;8.654;2023-03-01T05:18:27;24.70;;;13.57;;
5682;SDS011;2864;49.220;8.654;2023-03-01T05:20:53;22.23;;;14.03;;
5682;SDS011;2864;49.220;8.654;2023-03-01T05:23:21;21.90;;;13.53;;
5682;SDS011;2864;49.220;8.654;2023-03-01T05:25:47;24.07;;;13.33;;
5682;SDS011;2864;49.220;8.654;2023-03-01T05:28:14;21.93;;;13.67;;
5682;SDS011;2864;49.220;8.654;2023-03-01T05:30:40;20.50;;;13.27;;
5682;SDS011;2864;49.220;8.654;2023-03-01T05:33:06;23.60;;;14.40;;
5682;SDS011;2864;49.220;8.654;2023-03-01T05:35:38;25.47;;;13.97;;
5682;SDS011;2864;49.220;8.654;2023-03-01T05:38:04;22.60;;;14.07;;
5682;SDS011;2864;49.220;8.654;2023-03-01T05:40:32;25.17;;;14.23;;
5682;SDS011;2864;49.220;8.654;2023-03-01T05:42:58;24.77;;;13.47;;
5682;SDS011;2864;49.220;8.654;2023-03-01T05:45:25;21.93;;;13.70;;
5682;SDS011;2864;49.220;8.654;2023-03-01T05:47:51;26.90;;;13.83;;
5682;SDS011;2864;49.220;8.654;2023-03-01T05:50:21;21.70;;;13.87;;
5682;SDS011;2864;49.220;8.654;2023-03-01T05:52:48;23.63;;;14.03;;
5682;SDS011;2864;49.220;8.654;2023-03-01T05:55:19;24.37;;;14.33;;
5682;SDS011;2864;49.220;8.654;2023-03-01T05:57:45;24.10;;;14.70;;
5682;SDS011;2864;49.220;8.654;2023-03-01T06:00:12;24.07;;;13.87;;
5682;SDS011;2864;49.220;8.654;2023-03-01T06:02:39;22.47;;;14.07;;
5682;SDS011;2864;49.220;8.654;2023-03-01T06:05:06;27.33;;;13.87;;
5682;SDS011;2864;49.220;8.654;2023-03-01T06:07:33;23.47;;;13.67;;
5682;SDS011;2864;49.220;8.654;2023-03-01T06:09:59;22.47;;;13.47;;
5682;SDS011;2864;49.220;8.654;2023-03-01T06:12:24;27.87;;;14.03;;
5682;SDS011;2864;49.220;8.654;2023-03-01T06:14:50;43.07;;;20.97;;
5682;SDS011;2864;49.220;8.654;2023-03-01T06:17:16;32.77;;;17.53;;
5682;SDS011;2864;49.220;8.654;2023-03-01T06:19:42;58.00;;;23.13;;
5682;SDS011;2864;49.220;8.654;2023-03-01T06:22:08;31.50;;;17.30;;
5682;SDS011;2864;49.220;8.654;2023-03-01T06:24:34;117.50;;;38.77;;
5682;SDS011;2864;49.220;8.654;2023-03-01T06:27:00;42.60;;;19.37;;
5682;SDS011;2864;49.220;8.654;2023-03-01T06:29:26;34.63;;;19.47;;
5682;SDS011;2864;49.220;8.654;2023-03-01T06:31:52;24.13;;;14.87;;
5682;SDS011;2864;49.220;8.654;2023-03-01T06:34:18;26.50;;;14.27;;
5682;SDS011;2864;49.220;8.654;2023-03-01T06:36:46;23.43;;;14.53;;
5682;SDS011;2864;49.220;8.654;2023-03-01T06:39:13;27.27;;;15.10;;
5682;SDS011;2864;49.220;8.654;2023-03-01T06:41:39;25.37;;;13.63;;
5682;SDS011;2864;49.220;8.654;2023-03-01T06:44:05;25.13;;;14.10;;
5682;SDS011;2864;49.220;8.654;2023-03-01T06:46:31;23.70;;;14.43;;
5682;SDS011;2864;49.220;8.654;2023-03-01T06:48:57;26.27;;;14.13;;
5682;SDS011;2864;49.220;8.654;2023-03-01T06:51:22;24.07;;;13.90;;
5682;SDS011;2864;49.220;8.654;2023-03-01T06:53:48;24.00;;;13.53;;
5682;SDS011;2864;49.220;8.654;2023-03-01T06:56:14;21.80;;;12.83;;
5682;SDS011;2864;49.220;8.654;2023-03-01T06:58:40;22.43;;;13.33;;
5682;SDS011;2864;49.220;8.654;2023-03-01T07:01:07;23.77;;;14.73;;
5682;SDS011;2864;49.220;8.654;2023-03-01T07:03:33;22.00;;;13.90;;
5682;SDS011;2864;49.220;8.654;2023-03-01T07:05:59;21.97;;;13.20;;
5682;SDS011;2864;49.220;8.654;2023-03-01T07:08:25;22.13;;;12.60;;
5682;SDS011;2864;49.220;8.654;2023-03-01T07:10:57;23.37;;;13.77;;
5682;SDS011;2864;49.220;8.654;2023-03-01T07:13:24;22.03;;;13.80;;
5682;SDS011;2864;49.220;8.654;2023-03-01T07:15:50;23.03;;;14.27;;
5682;SDS011;2864;49.220;8.654;2023-03-01T07:18:16;20.53;;;13.10;;
5682;SDS011;2864;49.220;8.654;2023-03-01T07:20:42;20.50;;;12.83;;
5682;SDS011;2864;49.220;8.654;2023-03-01T07:23:07;23.93;;;13.20;;
5682;SDS011;2864;49.220;8.654;2023-03-01T07:25:33;24.77;;;14.10;;
5682;SDS011;2864;49.220;8.654;2023-03-01T07:27:59;25.07;;;15.13;;
5682;SDS011;2864;49.220;8.654;2023-03-01T07:30:25;31.00;;;18.23;;
5682;SDS011;2864;49.220;8.654;2023-03-01T07:32:53;21.63;;;13.40;;
5682;SDS011;2864;49.220;8.654;2023-03-01T07:35:19;22.57;;;13.63;;
5682;SDS011;2864;49.220;8.654;2023-03-01T07:37:45;24.97;;;13.67;;
5682;SDS011;2864;49.220;8.654;2023-03-01T07:40:11;23.10;;;13.90;;
5682;SDS011;2864;49.220;8.654;2023-03-01T07:42:37;21.40;;;13.37;;
5682;SDS011;2864;49.220;8.654;2023-03-01T07:45:04;21.17;;;13.53;;
5682;SDS011;2864;49.220;8.654;2023-03-01T07:47:30;20.43;;;12.77;;
5682;SDS011;2864;49.220;8.654;2023-03-01T07:49:56;23.80;;;14.43;;
5682;SDS011;2864;49.220;8.654;2023-03-01T07:52:22;20.60;;;12.60;;
5682;SDS011;2864;49.220;8.654;2023-03-01T07:54:48;24.60;;;13.83;;
5682;SDS011;2864;49.220;8.654;2023-03-01T07:57:14;17.77;;;11.90;;
5682;SDS011;2864;49.220;8.654;2023-03-01T07:59:40;20.10;;;13.80;;
5682;SDS011;2864;49.220;8.654;2023-03-01T08:02:06;23.83;;;14.17;;
5682;SDS011;2864;49.220;8.654;2023-03-01T08:04:32;26.43;;;14.80;;
5682;SDS011;2864;49.220;8.654;2023-03-01T08:06:58;20.03;;;12.93;;
5682;SDS011;2864;49.220;8.654;2023-03-01T08:09:24;23.30;;;13.33;;
5682;SDS011;2864;49.220;8.654;2023-03-01T08:11:50;18.73;;;12.43;;
5682;SDS011;2864;49.220;8.654;2023-03-01T08:14:16;24.33;;;14.10;;
5682;SDS011;2864;49.220;8.654;2023-03-01T08:16:42;29.43;;;14.33;;
5682;SDS011;2864;49.220;8.654;2023-03-01T08:19:09;23.13;;;13.33;;
5682;SDS011;2864;49.220;8.654;2023-03-01T08:21:36;20.50;;;12.77;;
5682;SDS011;2864;49.220;8.654;2023-03-01T08:24:02;20.27;;;13.13;;
5682;SDS011;2864;49.220;8.654;2023-03-01T08:26:29;21.20;;;13.00;;
5682;SDS011;2864;49.220;8.654;2023-03-01T08:28:55;22.73;;;13.83;;
5682;SDS011;2864;49.220;8.654;2023-03-01T08:33:47;22.47;;;13.37;;
5682;SDS011;2864;49.220;8.654;2023-03-01T08:36:16;25.07;;;13.53;;
5682;SDS011;2864;49.220;8.654;2023-03-01T08:38:43;20.67;;;13.53;;
5682;SDS011;2864;49.220;8.654;2023-03-01T08:41:09;22.90;;;13.50;;
5682;SDS011;2864;49.220;8.654;2023-03-01T08:43:35;18.80;;;12.77;;
5682;SDS011;2864;49.220;8.654;2023-03-01T08:46:01;21.40;;;12.70;;
5682;SDS011;2864;49.220;8.654;2023-03-01T08:48:27;24.03;;;13.67;;
5682;SDS011;2864;49.220;8.654;2023-03-01T08:50:53;22.97;;;13.77;;
5682;SDS011;2864;49.220;8.654;2023-03-01T08:53:19;22.33;;;14.73;;
5682;SDS011;2864;49.220;8.654;2023-03-01T08:55:45;23.93;;;14.70;;
5682;SDS011;2864;49.220;8.654;2023-03-01T08:58:11;22.17;;;13.43;;
5682;SDS011;2864;49.220;8.654;2023-03-01T09:00:37;22.47;;;14.23;;
5682;SDS011;2864;49.220;8.654;2023-03-01T09:03:03;22.77;;;14.47;;
5682;SDS011;2864;49.220;8.654;2023-03-01T09:05:32;20.87;;;14.73;;
5682;SDS011;2864;49.220;8.654;2023-03-01T09:07:59;23.37;;;15.30;;
5682;SDS011;2864;49.220;8.654;2023-03-01T09:10:25;22.00;;;13.80;;
5682;SDS011;2864;49.220;8.654;2023-03-01T09:12:51;20.13;;;13.50;;
5682;SDS011;2864;49.220;8.654;2023-03-01T09:15:17;24.40;;;14.40;;
5682;SDS011;2864;49.220;8.654;2023-03-01T09:17:43;25.17;;;13.83;;
5682;SDS011;2864;49.220;8.654;2023-03-01T09:20:09;21.50;;;14.13;;
5682;SDS011;2864;49.220;8.654;2023-03-01T09:22:35;21.30;;;14.23;;
5682;SDS011;2864;49.220;8.654;2023-03-01T09:25:01;23.07;;;13.47;;
5682;SDS011;2864;49.220;8.654;2023-03-01T09:27:27;21.83;;;12.90;;
5682;SDS011;2864;49.220;8.654;2023-03-01T09:29:53;20.57;;;13.83;;
5682;SDS011;2864;49.220;8.654;2023-03-01T09:32:21;24.37;;;14.03;;
5682;SDS011;2864;49.220;8.654;2023-03-01T09:34:47;21.07;;;14.63;;
5682;SDS011;2864;49.220;8.654;2023-03-01T09:37:32;19.80;;;13.27;;
5682;SDS011;2864;49.220;8.654;2023-03-01T09:39:59;23.13;;;14.33;;
5682;SDS011;2864;49.220;8.654;2023-03-01T09:42:25;20.27;;;14.23;;
5682;SDS011;2864;49.220;8.654;2023-03-01T09:44:58;20.60;;;15.80;;
5682;SDS011;2864;49.220;8.654;2023-03-01T09:47:26;19.83;;;14.83;;
5682;SDS011;2864;49.220;8.654;2023-03-01T09:55:14;23.10;;;14.50;;
5682;SDS011;2864;49.220;8.654;2023-03-01T09:57:48;23.10;;;14.27;;
5682;SDS011;2864;49.220;8.654;2023-03-01T10:00:28;22.53;;;13.57;;
5682;SDS011;2864;49.220;8.654;2023-03-01T10:03:01;22.77;;;13.57;;
5682;SDS011;2864;49.220;8.654;2023-03-01T10:10:51;19.60;;;13.37;;
5682;SDS011;2864;49.220;8.654;2023-03-01T10:15:48;20.93;;;14.17;;
5682;SDS011;2864;49.220;8.654;2023-03-01T10:18:20;22.77;;;13.87;;
5682;SDS011;2864;49.220;8.654;2023-03-01T10:23:13;22.80;;;14.87;;
5682;SDS011;2864;49.220;8.654;2023-03-01T10:30:49;18.73;;;12.73;;
5682;SDS011;2864;49.220;8.654;2023-03-01T10:33:35;23.93;;;14.47;;
5682;SDS011;2864;49.220;8.654;2023-03-01T10:36:04;19.93;;;14.43;;
5682;SDS011;2864;49.220;8.654;2023-03-01T10:38:31;21.60;;;13.60;;
5682;SDS011;2864;49.220;8.654;2023-03-01T10:41:12;19.77;;;13.43;;
5682;SDS011;2864;49.220;8.654;2023-03-01T10:43:45;21.47;;;13.20;;
5682;SDS011;2864;49.220;8.654;2023-03-01T10:46:28;18.97;;;13.70;;
5682;SDS011;2864;49.220;8.654;2023-03-01T10:49:07;22.43;;;14.27;;
5682;SDS011;2864;49.220;8.654;2023-03-01T10:51:36;23.47;;;13.90;;
5682;SDS011;2864;49.220;8.654;2023-03-01T10:54:03;21.17;;;14.40;;
5682;SDS011;2864;49.220;8.654;2023-03-01T10:56:30;22.70;;;13.70;;
5682;SDS011;2864;49.220;8.654;2023-03-01T10:59:19;21.83;;;14.60;;
5682;SDS011;2864;49.220;8.654;2023-03-01T11:02:03;18.40;;;14.03;;
5682;SDS011;2864;49.220;8.654;2023-03-01T11:04:30;19.53;;;13.93;;
5682;SDS011;2864;49.220;8.654;2023-03-01T11:06:59;19.33;;;13.43;;
5682;SDS011;2864;49.220;8.654;2023-03-01T11:09:26;20.67;;;14.20;;
5682;SDS011;2864;49.220;8.654;2023-03-01T11:12:02;20.50;;;13.37;;
5682;SDS011;2864;49.220;8.654;2023-03-01T11:14:30;20.17;;;13.73;;
5682;SDS011;2864;49.220;8.654;2023-03-01T11:16:59;20.97;;;13.93;;
5682;SDS011;2864;49.220;8.654;2023-03-01T11:19:25;20.40;;;13.30;;
5682;SDS011;2864;49.220;8.654;2023-03-01T11:24:17;21.60;;;13.13;;
5682;SDS011;2864;49.220;8.654;2023-03-01T11:26:45;18.30;;;13.97;;
5682;SDS011;2864;49.220;8.654;2023-03-01T11:29:21;19.60;;;12.97;;
5682;SDS011;2864;49.220;8.654;2023-03-01T11:31:49;20.23;;;13.50;;
5682;SDS011;2864;49.220;8.654;2023-03-01T11:34:17;23.80;;;14.33;;
5682;SDS011;2864;49.220;8.654;2023-03-01T11:36:50;20.40;;;13.33;;
5682;SDS011;2864;49.220;8.654;2023-03-01T11:39:27;19.93;;;13.43;;
5682;SDS011;2864;49.220;8.654;2023-03-01T11:42:35;20.13;;;13.17;;
5682;SDS011;2864;49.220;8.654;2023-03-01T11:44:54;17.77;;;13.00;;
5682;SDS011;2864;49.220;8.654;2023-03-01T11:47:27;19.33;;;13.63;;
5682;SDS011;2864;49.220;8.654;2023-03-01T11:50:01;21.33;;;13.63;;
5682;SDS011;2864;49.220;8.654;2023-03-01T11:52:46;17.57;;;13.13;;
5682;SDS011;2864;49.220;8.654;2023-03-01T12:13:50;18.17;;;12.97;;
5682;SDS011;2864;49.220;8.654;2023-03-01T12:24:00;17.90;;;12.83;;
5682;SDS011;2864;49.220;8.654;2023-03-01T12:26:34;19.90;;;12.93;;
5682;SDS011;2864;49.220;8.654;2023-03-01T12:29:18;19.27;;;13.60;;
5682;SDS011;2864;49.220;8.654;2023-03-01T12:32:02;18.83;;;13.80;;
5682;SDS011;2864;49.220;8.654;2023-03-01T12:42:31;18.27;;;12.93;;
5682;SDS011;2864;49.220;8.654;2023-03-01T12:48:03;19.10;;;11.93;;
5682;SDS011;2864;49.220;8.654;2023-03-01T12:53:01;20.23;;;12.87;;
5682;SDS011;2864;49.220;8.654;2023-03-01T12:55:34;19.87;;;12.10;;
5682;SDS011;2864;49.220;8.654;2023-03-01T13:06:16;15.07;;;11.60;;
5682;SDS011;2864;49.220;8.654;2023-03-01T13:11:22;18.00;;;11.70;;
5682;SDS011;2864;49.220;8.654;2023-03-01T13:13:48;15.87;;;11.73;;
5682;SDS011;2864;49.220;8.654;2023-03-01T13:16:19;16.00;;;11.67;;
5682;SDS011;2864;49.220;8.654;2023-03-01T13:18:46;14.73;;;11.73;;
5682;SDS011;2864;49.220;8.654;2023-03-01T13:21:12;18.37;;;12.60;;
5682;SDS011;2864;49.220;8.654;2023-03-01T13:23:38;13.60;;;11.60;;
5682;SDS011;2864;49.220;8.654;2023-03-01T13:31:09;13.77;;;11.30;;
5682;SDS011;2864;49.220;8.654;2023-03-01T13:33:39;15.70;;;11.93;;
5682;SDS011;2864;49.220;8.654;2023-03-01T13:36:06;17.63;;;11.73;;
5682;SDS011;2864;49.220;8.654;2023-03-01T13:41:48;15.53;;;11.03;;
5682;SDS011;2864;49.220;8.654;2023-03-01T13:44:13;15.67;;;10.90;;
5682;SDS011;2864;49.220;8.654;2023-03-01T13:46:44;16.43;;;11.73;;
5682;SDS011;2864;49.220;8.654;2023-03-01T13:49:14;16.93;;;11.97;;
5682;SDS011;2864;49.220;8.654;2023-03-01T13:51:41;14.87;;;12.20;;
5682;SDS011;2864;49.220;8.654;2023-03-01T13:54:11;13.67;;;11.47;;
5682;SDS011;2864;49.220;8.654;2023-03-01T13:56:38;13.67;;;11.60;;
5682;SDS011;2864;49.220;8.654;2023-03-01T13:59:06;13.87;;;11.80;;
5682;SDS011;2864;49.220;8.654;2023-03-01T14:01:38;14.73;;;11.67;;
5682;SDS011;2864;49.220;8.654;2023-03-01T14:04:18;14.10;;;11.77;;
5682;SDS011;2864;49.220;8.654;2023-03-01T14:06:46;16.70;;;11.70;;
5682;SDS011;2864;49.220;8.654;2023-03-01T14:09:27;16.17;;;11.83;;
5682;SDS011;2864;49.220;8.654;2023-03-01T14:19:55;14.17;;;11.87;;
5682;SDS011;2864;49.220;8.654;2023-03-01T14:22:22;15.30;;;11.50;;
5682;SDS011;2864;49.220;8.654;2023-03-01T14:24:56;15.60;;;10.77;;
5682;SDS011;2864;49.220;8.654;2023-03-01T14:27:23;14.13;;;11.63;;
5682;SDS011;2864;49.220;8.654;2023-03-01T14:29:54;14.23;;;11.27;;
5682;SDS011;2864;49.220;8.654;2023-03-01T14:32:24;13.63;;;12.00;;
5682;SDS011;2864;49.220;8.654;2023-03-01T14:34:52;13.73;;;11.23;;
5682;SDS011;2864;49.220;8.654;2023-03-01T14:37:26;14.67;;;11.47;;
5682;SDS011;2864;49.220;8.654;2023-03-01T14:39:52;15.53;;;11.47;;
5682;SDS011;2864;49.220;8.654;2023-03-01T14:42:19;13.97;;;11.70;;
5682;SDS011;2864;49.220;8.654;2023-03-01T14:44:48;13.43;;;11.37;;
5682;SDS011;2864;49.220;8.654;2023-03-01T14:47:14;15.43;;;12.03;;
5682;SDS011;2864;49.220;8.654;2023-03-01T14:49:41;14.80;;;12.47;;
5682;SDS011;2864;49.220;8.654;2023-03-01T14:52:14;13.63;;;12.17;;
5682;SDS011;2864;49.220;8.654;2023-03-01T14:54:45;15.60;;;12.20;;
5682;SDS011;2864;49.220;8.654;2023-03-01T14:57:15;17.03;;;11.97;;
5682;SDS011;2864;49.220;8.654;2023-03-01T14:59:42;16.23;;;11.70;;
5682;SDS011;2864;49.220;8.654;2023-03-01T15:02:11;14.47;;;12.13;;
5682;SDS011;2864;49.220;8.654;2023-03-01T15:04:43;15.17;;;11.60;;
5682;SDS011;2864;49.220;8.654;2023-03-01T15:07:11;15.17;;;12.10;;
5682;SDS011;2864;49.220;8.654;2023-03-01T15:09:39;15.77;;;12.17;;
5682;SDS011;2864;49.220;8.654;2023-03-01T15:14:53;14.17;;;11.97;;
5682;SDS011;2864;49.220;8.654;2023-03-01T15:17:32;16.30;;;12.40;;
5682;SDS011;2864;49.220;8.654;2023-03-01T15:19:59;14.13;;;11.97;;
5682;SDS011;2864;49.220;8.654;2023-03-01T15:22:26;14.47;;;11.63;;
5682;SDS011;2864;49.220;8.654;2023-03-01T15:24:52;16.20;;;12.17;;
5682;SDS011;2864;49.220;8.654;2023-03-01T15:27:20;17.30;;;12.00;;
5682;SDS011;2864;49.220;8.654;2023-03-01T15:29:52;17.23;;;12.53;;
5682;SDS011;2864;49.220;8.654;2023-03-01T15:34:54;16.07;;;12.53;;
5682;SDS011;2864;49.220;8.654;2023-03-01T15:42:43;16.50;;;12.67;;
5682;SDS011;2864;49.220;8.654;2023-03-01T15:47:35;18.23;;;14.10;;
5682;SDS011;2864;49.220;8.654;2023-03-01T15:50:03;17.70;;;11.70;;
5682;SDS011;2864;49.220;8.654;2023-03-01T15:52:39;15.77;;;12.60;;
5682;SDS011;2864;49.220;8.654;2023-03-01T15:55:10;20.10;;;14.33;;
5682;SDS011;2864;49.220;8.654;2023-03-01T15:57:39;20.00;;;12.83;;
5682;SDS011;2864;49.220;8.654;2023-03-01T16:00:05;18.03;;;12.73;;
5682;SDS011;2864;49.220;8.654;2023-03-01T16:02:36;15.30;;;11.77;;
5682;SDS011;2864;49.220;8.654;2023-03-01T16:05:02;17.80;;;11.80;;
5682;SDS011;2864;49.220;8.654;2023-03-01T16:07:28;16.17;;;12.17;;
5682;SDS011;2864;49.220;8.654;2023-03-01T16:09:56;16.63;;;12.90;;
5682;SDS011;2864;49.220;8.654;2023-03-01T16:12:22;17.43;;;13.60;;
5682;SDS011;2864;49.220;8.654;2023-03-01T16:14:49;19.67;;;13.53;;
5682;SDS011;2864;49.220;8.654;2023-03-01T16:17:15;14.70;;;12.67;;
5682;SDS011;2864;49.220;8.654;2023-03-01T16:19:41;23.47;;;16.13;;
5682;SDS011;2864;49.220;8.654;2023-03-01T16:22:08;16.40;;;12.30;;
5682;SDS011;2864;49.220;8.654;2023-03-01T16:24:35;15.03;;;11.40;;
5682;SDS011;2864;49.220;8.654;2023-03-01T16:27:01;18.40;;;12.40;;
5682;SDS011;2864;49.220;8.654;2023-03-01T16:29:28;20.17;;;13.47;;
5682;SDS011;2864;49.220;8.654;2023-03-01T16:31:54;25.23;;;18.60;;
5682;SDS011;2864;49.220;8.654;2023-03-01T16:34:20;18.53;;;13.10;;
5682;SDS011;2864;49.220;8.654;2023-03-01T16:36:47;17.40;;;12.73;;
5682;SDS011;2864;49.220;8.654;2023-03-01T16:39:13;20.77;;;12.57;;
5682;SDS011;2864;49.220;8.654;2023-03-01T16:41:39;18.67;;;13.30;;
5682;SDS011;2864;49.220;8.654;2023-03-01T16:44:05;34.93;;;20.40;;
5682;SDS011;2864;49.220;8.654;2023-03-01T16:46:31;20.90;;;14.53;;
5682;SDS011;2864;49.220;8.654;2023-03-01T16:48:57;18.90;;;12.83;;
5682;SDS011;2864;49.220;8.654;2023-03-01T16:51:23;17.67;;;12.20;;
5682;SDS011;2864;49.220;8.654;2023-03-01T16:53:49;17.83;;;11.93;;